sensor_id;sensor_type;location;lat;lon;timestamp;P1;durP1;ratioP1;P2;durP2;ratioP2
52322;SDS011;38263;52.920;6.238;2022-09-09T00:04:47;12.15;;;7.70;;
52322;SDS011;38263;52.920;6.238;2022-09-09T00:07:37;9.60;;;7.18;;
52322;SDS011;38263;52.920;6.238;2022-09-09T00:10:18;13.38;;;6.78;;
52322;SDS011;38263;52.920;6.238;2022-09-09T00:13:05;11.02;;;7.22;;
52322;SDS011;38263;52.920;6.238;2022-09-09T00:15:52;11.75;;;7.10;;
52322;SDS011;38263;52.920;6.238;2022-09-09T00:18:31;12.43;;;7.38;;
52322;SDS011;38263;52.920;6.238;2022-09-09T00:21:05;11.40;;;6.82;;
52322;SDS011;38263;52.920;6.238;2022-09-09T00:23:34;10.20;;;7.10;;
52322;SDS011;38263;52.920;6.238;2022-09-09T00:32:05;12.02;;;6.80;;
52322;SDS011;38263;52.920;6.238;2022-09-09T00:34:38;10.82;;;7.22;;
52322;SDS011;38263;52.920;6.238;2022-09-09T00:37:09;11.27;;;7.40;;
52322;SDS011;38263;52.920;6.238;2022-09-09T00:39:39;9.95;;;6.88;;
52322;SDS011;38263;52.920;6.238;2022-09-09T00:44:56;9.93;;;7.28;;
52322;SDS011;38263;52.920;6.238;2022-09-09T00:47:39;10.38;;;6.82;;
52322;SDS011;38263;52.920;6.238;2022-09-09T00:50:17;12.68;;;7.60;;
52322;SDS011;38263;52.920;6.238;2022-09-09T00:56:06;7.10;;;6.15;;
52322;SDS011;38263;52.920;6.238;2022-09-09T00:58:38;9.38;;;7.18;;
52322;SDS011;38263;52.920;6.238;2022-09-09T01:01:04;11.90;;;7.47;;
52322;SDS011;38263;52.920;6.238;2022-09-09T01:03:38;10.25;;;7.70;;
52322;SDS011;38263;52.920;6.238;2022-09-09T01:15:03;9.20;;;7.75;;
52322;SDS011;38263;52.920;6.238;2022-09-09T01:17:48;15.52;;;8.75;;
52322;SDS011;38263;52.920;6.238;2022-09-09T01:26:43;11.50;;;8.50;;
52322;SDS011;38263;52.920;6.238;2022-09-09T01:29:17;18.70;;;9.40;;
52322;SDS011;38263;52.920;6.238;2022-09-09T01:31:57;13.43;;;9.00;;
52322;SDS011;38263;52.920;6.238;2022-09-09T01:34:46;15.95;;;9.23;;
52322;SDS011;38263;52.920;6.238;2022-09-09T01:37:11;14.48;;;9.48;;
52322;SDS011;38263;52.920;6.238;2022-09-09T01:39:38;12.52;;;9.30;;
52322;SDS011;38263;52.920;6.238;2022-09-09T01:42:08;12.65;;;9.32;;
52322;SDS011;38263;52.920;6.238;2022-09-09T01:44:36;18.75;;;9.43;;
52322;SDS011;38263;52.920;6.238;2022-09-09T01:47:03;13.60;;;9.60;;
52322;SDS011;38263;52.920;6.238;2022-09-09T01:49:29;14.23;;;9.52;;
52322;SDS011;38263;52.920;6.238;2022-09-09T01:51:55;13.23;;;9.82;;
52322;SDS011;38263;52.920;6.238;2022-09-09T01:54:22;15.02;;;9.52;;
52322;SDS011;38263;52.920;6.238;2022-09-09T01:56:54;18.08;;;10.70;;
52322;SDS011;38263;52.920;6.238;2022-09-09T02:02:26;11.60;;;10.10;;
52322;SDS011;38263;52.920;6.238;2022-09-09T02:08:11;13.55;;;10.15;;
52322;SDS011;38263;52.920;6.238;2022-09-09T02:10:59;18.02;;;11.18;;
52322;SDS011;38263;52.920;6.238;2022-09-09T02:13:30;18.35;;;10.48;;
52322;SDS011;38263;52.920;6.238;2022-09-09T02:18:33;13.75;;;10.65;;
52322;SDS011;38263;52.920;6.238;2022-09-09T02:21:04;14.98;;;10.90;;
52322;SDS011;38263;52.920;6.238;2022-09-09T02:23:31;14.63;;;10.40;;
52322;SDS011;38263;52.920;6.238;2022-09-09T02:25:58;12.07;;;10.25;;
52322;SDS011;38263;52.920;6.238;2022-09-09T02:28:26;17.35;;;11.13;;
52322;SDS011;38263;52.920;6.238;2022-09-09T02:30:55;19.35;;;9.70;;
52322;SDS011;38263;52.920;6.238;2022-09-09T02:33:26;16.40;;;10.02;;
52322;SDS011;38263;52.920;6.238;2022-09-09T02:35:55;14.73;;;10.25;;
52322;SDS011;38263;52.920;6.238;2022-09-09T02:38:26;13.57;;;9.43;;
52322;SDS011;38263;52.920;6.238;2022-09-09T02:40:54;14.38;;;8.73;;
52322;SDS011;38263;52.920;6.238;2022-09-09T02:43:20;12.35;;;8.48;;
52322;SDS011;38263;52.920;6.238;2022-09-09T02:45:51;14.18;;;8.73;;
52322;SDS011;38263;52.920;6.238;2022-09-09T02:48:57;12.43;;;8.07;;
52322;SDS011;38263;52.920;6.238;2022-09-09T02:51:45;14.38;;;10.45;;
52322;SDS011;38263;52.920;6.238;2022-09-09T02:54:27;12.50;;;8.60;;
52322;SDS011;38263;52.920;6.238;2022-09-09T02:57:11;13.85;;;8.75;;
52322;SDS011;38263;52.920;6.238;2022-09-09T02:59:48;15.20;;;8.75;;
52322;SDS011;38263;52.920;6.238;2022-09-09T03:02:15;13.35;;;8.77;;
52322;SDS011;38263;52.920;6.238;2022-09-09T03:04:41;10.90;;;7.90;;
52322;SDS011;38263;52.920;6.238;2022-09-09T03:07:09;13.18;;;8.75;;
52322;SDS011;38263;52.920;6.238;2022-09-09T03:09:35;15.00;;;8.82;;
52322;SDS011;38263;52.920;6.238;2022-09-09T03:12:00;15.98;;;9.10;;
52322;SDS011;38263;52.920;6.238;2022-09-09T03:14:27;11.38;;;7.78;;
52322;SDS011;38263;52.920;6.238;2022-09-09T03:16:52;15.00;;;8.55;;
52322;SDS011;38263;52.920;6.238;2022-09-09T03:19:19;15.45;;;9.00;;
52322;SDS011;38263;52.920;6.238;2022-09-09T03:21:46;12.88;;;8.43;;
52322;SDS011;38263;52.920;6.238;2022-09-09T03:24:12;12.73;;;8.48;;
52322;SDS011;38263;52.920;6.238;2022-09-09T03:26:39;13.43;;;9.48;;
52322;SDS011;38263;52.920;6.238;2022-09-09T03:29:05;15.18;;;9.40;;
52322;SDS011;38263;52.920;6.238;2022-09-09T03:31:35;14.07;;;9.70;;
52322;SDS011;38263;52.920;6.238;2022-09-09T03:34:01;14.30;;;9.75;;
52322;SDS011;38263;52.920;6.238;2022-09-09T03:36:27;17.65;;;10.10;;
52322;SDS011;38263;52.920;6.238;2022-09-09T03:38:53;12.90;;;9.73;;
52322;SDS011;38263;52.920;6.238;2022-09-09T03:41:20;15.25;;;10.15;;
52322;SDS011;38263;52.920;6.238;2022-09-09T03:43:52;14.35;;;9.73;;
52322;SDS011;38263;52.920;6.238;2022-09-09T03:46:19;13.30;;;10.05;;
52322;SDS011;38263;52.920;6.238;2022-09-09T03:48:45;16.42;;;10.82;;
52322;SDS011;38263;52.920;6.238;2022-09-09T03:51:11;16.85;;;10.35;;
52322;SDS011;38263;52.920;6.238;2022-09-09T03:53:37;14.90;;;10.27;;
52322;SDS011;38263;52.920;6.238;2022-09-09T03:56:03;16.05;;;10.25;;
52322;SDS011;38263;52.920;6.238;2022-09-09T03:58:31;13.43;;;10.38;;
52322;SDS011;38263;52.920;6.238;2022-09-09T04:00:59;13.80;;;10.00;;
52322;SDS011;38263;52.920;6.238;2022-09-09T04:03:26;14.65;;;10.38;;
52322;SDS011;38263;52.920;6.238;2022-09-09T04:05:53;15.10;;;9.52;;
52322;SDS011;38263;52.920;6.238;2022-09-09T04:08:19;13.73;;;8.93;;
52322;SDS011;38263;52.920;6.238;2022-09-09T04:10:46;15.75;;;10.05;;
52322;SDS011;38263;52.920;6.238;2022-09-09T04:13:12;14.38;;;9.45;;
52322;SDS011;38263;52.920;6.238;2022-09-09T04:15:40;17.50;;;8.75;;
52322;SDS011;38263;52.920;6.238;2022-09-09T04:18:06;13.32;;;9.38;;
52322;SDS011;38263;52.920;6.238;2022-09-09T04:20:31;13.40;;;8.77;;
52322;SDS011;38263;52.920;6.238;2022-09-09T04:22:58;12.38;;;8.65;;
52322;SDS011;38263;52.920;6.238;2022-09-09T04:25:23;10.82;;;8.23;;
52322;SDS011;38263;52.920;6.238;2022-09-09T04:27:55;12.27;;;8.70;;
52322;SDS011;38263;52.920;6.238;2022-09-09T04:30:22;11.45;;;7.57;;
52322;SDS011;38263;52.920;6.238;2022-09-09T04:32:48;13.52;;;8.65;;
52322;SDS011;38263;52.920;6.238;2022-09-09T04:35:14;14.07;;;8.65;;
52322;SDS011;38263;52.920;6.238;2022-09-09T04:37:40;15.18;;;8.98;;
52322;SDS011;38263;52.920;6.238;2022-09-09T04:40:06;15.30;;;9.18;;
52322;SDS011;38263;52.920;6.238;2022-09-09T04:42:35;12.57;;;9.18;;
52322;SDS011;38263;52.920;6.238;2022-09-09T04:45:01;15.07;;;8.65;;
52322;SDS011;38263;52.920;6.238;2022-09-09T04:47:26;13.70;;;8.35;;
52322;SDS011;38263;52.920;6.238;2022-09-09T04:49:52;14.93;;;9.40;;
52322;SDS011;38263;52.920;6.238;2022-09-09T04:52:19;15.98;;;9.15;;
52322;SDS011;38263;52.920;6.238;2022-09-09T04:54:45;14.57;;;8.30;;
52322;SDS011;38263;52.920;6.238;2022-09-09T04:57:11;14.00;;;8.85;;
52322;SDS011;38263;52.920;6.238;2022-09-09T04:59:36;13.18;;;9.05;;
52322;SDS011;38263;52.920;6.238;2022-09-09T05:02:02;15.93;;;9.20;;
52322;SDS011;38263;52.920;6.238;2022-09-09T05:04:28;15.98;;;10.02;;
52322;SDS011;38263;52.920;6.238;2022-09-09T05:06:54;16.63;;;9.82;;
52322;SDS011;38263;52.920;6.238;2022-09-09T05:09:20;14.82;;;10.05;;
52322;SDS011;38263;52.920;6.238;2022-09-09T05:11:46;16.98;;;10.95;;
52322;SDS011;38263;52.920;6.238;2022-09-09T05:14:11;20.75;;;11.80;;
52322;SDS011;38263;52.920;6.238;2022-09-09T05:16:37;16.23;;;11.27;;
52322;SDS011;38263;52.920;6.238;2022-09-09T05:19:02;18.98;;;11.50;;
52322;SDS011;38263;52.920;6.238;2022-09-09T05:21:28;19.48;;;12.43;;
52322;SDS011;38263;52.920;6.238;2022-09-09T05:23:56;17.23;;;11.45;;
52322;SDS011;38263;52.920;6.238;2022-09-09T05:26:22;19.15;;;11.73;;
52322;SDS011;38263;52.920;6.238;2022-09-09T05:28:49;17.27;;;11.25;;
52322;SDS011;38263;52.920;6.238;2022-09-09T05:31:15;18.92;;;11.82;;
52322;SDS011;38263;52.920;6.238;2022-09-09T05:33:42;17.30;;;11.00;;
52322;SDS011;38263;52.920;6.238;2022-09-09T05:36:11;19.27;;;12.95;;
52322;SDS011;38263;52.920;6.238;2022-09-09T05:38:42;18.95;;;11.50;;
52322;SDS011;38263;52.920;6.238;2022-09-09T05:41:09;16.50;;;11.35;;
52322;SDS011;38263;52.920;6.238;2022-09-09T05:43:40;16.20;;;10.93;;
52322;SDS011;38263;52.920;6.238;2022-09-09T05:46:11;19.77;;;11.68;;
52322;SDS011;38263;52.920;6.238;2022-09-09T05:48:41;18.95;;;11.85;;
52322;SDS011;38263;52.920;6.238;2022-09-09T05:51:08;16.08;;;10.50;;
52322;SDS011;38263;52.920;6.238;2022-09-09T05:53:37;12.68;;;9.88;;
52322;SDS011;38263;52.920;6.238;2022-09-09T05:56:10;17.98;;;10.27;;
52322;SDS011;38263;52.920;6.238;2022-09-09T05:58:41;15.88;;;9.90;;
52322;SDS011;38263;52.920;6.238;2022-09-09T06:03:36;18.02;;;9.77;;
52322;SDS011;38263;52.920;6.238;2022-09-09T06:06:03;15.50;;;10.50;;
52322;SDS011;38263;52.920;6.238;2022-09-09T06:08:31;14.20;;;9.35;;
52322;SDS011;38263;52.920;6.238;2022-09-09T06:11:08;14.30;;;10.02;;
52322;SDS011;38263;52.920;6.238;2022-09-09T06:13:35;14.40;;;9.38;;
52322;SDS011;38263;52.920;6.238;2022-09-09T06:16:14;13.15;;;9.57;;
52322;SDS011;38263;52.920;6.238;2022-09-09T06:18:41;14.45;;;9.02;;
52322;SDS011;38263;52.920;6.238;2022-09-09T06:21:14;12.73;;;9.25;;
52322;SDS011;38263;52.920;6.238;2022-09-09T06:23:41;19.60;;;9.68;;
52322;SDS011;38263;52.920;6.238;2022-09-09T06:26:14;16.13;;;10.02;;
52322;SDS011;38263;52.920;6.238;2022-09-09T06:28:44;14.23;;;10.20;;
52322;SDS011;38263;52.920;6.238;2022-09-09T06:31:11;14.02;;;8.93;;
52322;SDS011;38263;52.920;6.238;2022-09-09T06:33:39;11.23;;;8.95;;
52322;SDS011;38263;52.920;6.238;2022-09-09T06:36:07;13.35;;;8.90;;
52322;SDS011;38263;52.920;6.238;2022-09-09T06:38:36;14.43;;;9.23;;
52322;SDS011;38263;52.920;6.238;2022-09-09T06:41:01;18.13;;;9.23;;
52322;SDS011;38263;52.920;6.238;2022-09-09T06:43:27;14.32;;;9.73;;
52322;SDS011;38263;52.920;6.238;2022-09-09T06:45:57;13.13;;;9.18;;
52322;SDS011;38263;52.920;6.238;2022-09-09T06:48:24;17.60;;;9.65;;
52322;SDS011;38263;52.920;6.238;2022-09-09T06:53:27;16.48;;;9.23;;
52322;SDS011;38263;52.920;6.238;2022-09-09T06:55:53;13.90;;;9.18;;
52322;SDS011;38263;52.920;6.238;2022-09-09T06:58:19;12.80;;;9.10;;
52322;SDS011;38263;52.920;6.238;2022-09-09T07:00:47;14.88;;;9.48;;
52322;SDS011;38263;52.920;6.238;2022-09-09T07:03:13;16.15;;;10.35;;
52322;SDS011;38263;52.920;6.238;2022-09-09T07:05:38;18.63;;;10.57;;
52322;SDS011;38263;52.920;6.238;2022-09-09T07:08:04;15.55;;;9.45;;
52322;SDS011;38263;52.920;6.238;2022-09-09T07:10:30;14.73;;;9.82;;
52322;SDS011;38263;52.920;6.238;2022-09-09T07:12:56;12.80;;;8.98;;
52322;SDS011;38263;52.920;6.238;2022-09-09T07:15:21;12.05;;;8.35;;
52322;SDS011;38263;52.920;6.238;2022-09-09T07:17:48;17.80;;;8.55;;
52322;SDS011;38263;52.920;6.238;2022-09-09T07:20:14;18.05;;;8.73;;
52322;SDS011;38263;52.920;6.238;2022-09-09T07:22:40;12.52;;;8.48;;
52322;SDS011;38263;52.920;6.238;2022-09-09T07:25:06;14.23;;;8.75;;
52322;SDS011;38263;52.920;6.238;2022-09-09T07:27:32;15.63;;;9.10;;
52322;SDS011;38263;52.920;6.238;2022-09-09T07:29:58;13.98;;;8.27;;
52322;SDS011;38263;52.920;6.238;2022-09-09T07:32:24;12.80;;;8.35;;
52322;SDS011;38263;52.920;6.238;2022-09-09T07:34:50;14.18;;;9.00;;
52322;SDS011;38263;52.920;6.238;2022-09-09T07:37:16;12.38;;;8.40;;
52322;SDS011;38263;52.920;6.238;2022-09-09T07:39:42;12.63;;;8.23;;
52322;SDS011;38263;52.920;6.238;2022-09-09T07:42:09;11.23;;;8.60;;
52322;SDS011;38263;52.920;6.238;2022-09-09T07:44:36;15.68;;;9.02;;
52322;SDS011;38263;52.920;6.238;2022-09-09T07:47:04;15.85;;;8.13;;
52322;SDS011;38263;52.920;6.238;2022-09-09T07:49:30;15.52;;;8.52;;
52322;SDS011;38263;52.920;6.238;2022-09-09T07:51:56;10.68;;;7.30;;
52322;SDS011;38263;52.920;6.238;2022-09-09T07:54:22;10.75;;;7.60;;
52322;SDS011;38263;52.920;6.238;2022-09-09T07:56:48;9.00;;;7.05;;
52322;SDS011;38263;52.920;6.238;2022-09-09T07:59:15;13.82;;;6.75;;
52322;SDS011;38263;52.920;6.238;2022-09-09T08:01:52;11.98;;;6.82;;
52322;SDS011;38263;52.920;6.238;2022-09-09T08:04:19;11.75;;;6.65;;
52322;SDS011;38263;52.920;6.238;2022-09-09T08:06:51;14.00;;;6.75;;
52322;SDS011;38263;52.920;6.238;2022-09-09T08:09:19;10.13;;;6.43;;
52322;SDS011;38263;52.920;6.238;2022-09-09T08:11:45;13.82;;;6.18;;
52322;SDS011;38263;52.920;6.238;2022-09-09T08:14:12;11.18;;;6.18;;
52322;SDS011;38263;52.920;6.238;2022-09-09T08:16:39;13.02;;;6.85;;
52322;SDS011;38263;52.920;6.238;2022-09-09T08:19:07;11.02;;;6.55;;
52322;SDS011;38263;52.920;6.238;2022-09-09T08:21:33;11.80;;;5.68;;
52322;SDS011;38263;52.920;6.238;2022-09-09T08:24:01;13.82;;;6.28;;
52322;SDS011;38263;52.920;6.238;2022-09-09T08:26:29;8.52;;;5.57;;
52322;SDS011;38263;52.920;6.238;2022-09-09T08:28:56;14.07;;;6.15;;
52322;SDS011;38263;52.920;6.238;2022-09-09T08:31:28;14.65;;;5.85;;
52322;SDS011;38263;52.920;6.238;2022-09-09T08:33:56;10.80;;;5.97;;
52322;SDS011;38263;52.920;6.238;2022-09-09T08:36:26;12.88;;;5.57;;
52322;SDS011;38263;52.920;6.238;2022-09-09T08:38:54;8.27;;;5.80;;
52322;SDS011;38263;52.920;6.238;2022-09-09T08:41:37;9.55;;;5.28;;
52322;SDS011;38263;52.920;6.238;2022-09-09T08:47:16;16.10;;;5.15;;
52322;SDS011;38263;52.920;6.238;2022-09-09T08:58:11;13.73;;;4.43;;
52322;SDS011;38263;52.920;6.238;2022-09-09T09:11:48;12.57;;;5.10;;
52322;SDS011;38263;52.920;6.238;2022-09-09T09:14:30;11.93;;;4.28;;
52322;SDS011;38263;52.920;6.238;2022-09-09T09:19:58;12.73;;;4.63;;
52322;SDS011;38263;52.920;6.238;2022-09-09T09:22:37;13.93;;;5.07;;
52322;SDS011;38263;52.920;6.238;2022-09-09T09:27:58;10.63;;;4.35;;
52322;SDS011;38263;52.920;6.238;2022-09-09T09:30:26;9.82;;;5.18;;
52322;SDS011;38263;52.920;6.238;2022-09-09T09:33:02;9.00;;;4.30;;
52322;SDS011;38263;52.920;6.238;2022-09-09T09:35:35;10.05;;;3.97;;
52322;SDS011;38263;52.920;6.238;2022-09-09T09:38:01;9.82;;;3.85;;
52322;SDS011;38263;52.920;6.238;2022-09-09T09:40:34;9.50;;;3.35;;
52322;SDS011;38263;52.920;6.238;2022-09-09T09:43:00;9.68;;;2.67;;
52322;SDS011;38263;52.920;6.238;2022-09-09T09:45:27;12.43;;;2.83;;
52322;SDS011;38263;52.920;6.238;2022-09-09T09:48:00;10.80;;;3.55;;
52322;SDS011;38263;52.920;6.238;2022-09-09T09:50:27;10.05;;;2.97;;
52322;SDS011;38263;52.920;6.238;2022-09-09T09:53:03;7.45;;;3.03;;
52322;SDS011;38263;52.920;6.238;2022-09-09T09:55:31;12.23;;;3.60;;
52322;SDS011;38263;52.920;6.238;2022-09-09T09:58:00;8.88;;;3.05;;
52322;SDS011;38263;52.920;6.238;2022-09-09T10:00:30;7.00;;;2.50;;
52322;SDS011;38263;52.920;6.238;2022-09-09T10:02:56;6.78;;;2.17;;
52322;SDS011;38263;52.920;6.238;2022-09-09T10:05:25;10.35;;;2.83;;
52322;SDS011;38263;52.920;6.238;2022-09-09T10:08:00;9.15;;;2.78;;
52322;SDS011;38263;52.920;6.238;2022-09-09T10:13:53;6.95;;;2.08;;
52322;SDS011;38263;52.920;6.238;2022-09-09T10:19:26;5.57;;;1.98;;
52322;SDS011;38263;52.920;6.238;2022-09-09T10:22:01;9.50;;;2.35;;
52322;SDS011;38263;52.920;6.238;2022-09-09T10:30:14;7.20;;;1.98;;
52322;SDS011;38263;52.920;6.238;2022-09-09T10:35:46;7.88;;;1.70;;
52322;SDS011;38263;52.920;6.238;2022-09-09T10:38:30;4.55;;;1.40;;
52322;SDS011;38263;52.920;6.238;2022-09-09T10:41:12;11.18;;;2.40;;
52322;SDS011;38263;52.920;6.238;2022-09-09T10:52:20;4.90;;;1.60;;
52322;SDS011;38263;52.920;6.238;2022-09-09T10:54:59;10.05;;;2.15;;
52322;SDS011;38263;52.920;6.238;2022-09-09T11:00:19;7.80;;;2.00;;
52322;SDS011;38263;52.920;6.238;2022-09-09T11:02:50;7.05;;;1.70;;
52322;SDS011;38263;52.920;6.238;2022-09-09T11:05:29;10.80;;;2.25;;
52322;SDS011;38263;52.920;6.238;2022-09-09T11:10:40;9.57;;;1.73;;
52322;SDS011;38263;52.920;6.238;2022-09-09T11:21:47;9.82;;;1.98;;
52322;SDS011;38263;52.920;6.238;2022-09-09T11:26:49;6.25;;;2.28;;
52322;SDS011;38263;52.920;6.238;2022-09-09T11:31:57;5.63;;;1.50;;
52322;SDS011;38263;52.920;6.238;2022-09-09T11:34:39;8.38;;;1.77;;
52322;SDS011;38263;52.920;6.238;2022-09-09T11:37:23;7.28;;;1.52;;
52322;SDS011;38263;52.920;6.238;2022-09-09T11:40:23;8.13;;;2.17;;
52322;SDS011;38263;52.920;6.238;2022-09-09T11:43:03;6.60;;;2.03;;
52322;SDS011;38263;52.920;6.238;2022-09-09T11:45:30;6.47;;;1.35;;
52322;SDS011;38263;52.920;6.238;2022-09-09T11:47:58;6.75;;;1.48;;
52322;SDS011;38263;52.920;6.238;2022-09-09T11:52:51;5.97;;;2.70;;
52322;SDS011;38263;52.920;6.238;2022-09-09T11:55:32;6.57;;;1.70;;
52322;SDS011;38263;52.920;6.238;2022-09-09T11:58:03;5.60;;;1.83;;
52322;SDS011;38263;52.920;6.238;2022-09-09T12:03:02;6.57;;;2.30;;
52322;SDS011;38263;52.920;6.238;2022-09-09T12:05:36;5.88;;;1.60;;
52322;SDS011;38263;52.920;6.238;2022-09-09T12:08:15;9.23;;;1.90;;
52322;SDS011;38263;52.920;6.238;2022-09-09T12:10:53;9.52;;;2.00;;
52322;SDS011;38263;52.920;6.238;2022-09-09T12:13:21;15.77;;;2.40;;
52322;SDS011;38263;52.920;6.238;2022-09-09T12:15:50;5.50;;;1.58;;
52322;SDS011;38263;52.920;6.238;2022-09-09T12:18:37;6.72;;;1.55;;
52322;SDS011;38263;52.920;6.238;2022-09-09T12:21:19;3.55;;;1.20;;
52322;SDS011;38263;52.920;6.238;2022-09-09T12:23:58;4.82;;;2.58;;
52322;SDS011;38263;52.920;6.238;2022-09-09T12:26:32;8.30;;;1.55;;
52322;SDS011;38263;52.920;6.238;2022-09-09T12:29:14;4.80;;;1.55;;
52322;SDS011;38263;52.920;6.238;2022-09-09T12:34:38;6.25;;;1.50;;
52322;SDS011;38263;52.920;6.238;2022-09-09T12:40:38;6.20;;;1.52;;
52322;SDS011;38263;52.920;6.238;2022-09-09T12:42:46;8.25;;;1.67;;
52322;SDS011;38263;52.920;6.238;2022-09-09T12:45:16;5.22;;;1.73;;
52322;SDS011;38263;52.920;6.238;2022-09-09T12:47:45;7.70;;;1.80;;
52322;SDS011;38263;52.920;6.238;2022-09-09T12:50:22;7.40;;;1.48;;
52322;SDS011;38263;52.920;6.238;2022-09-09T12:52:57;6.53;;;1.75;;
52322;SDS011;38263;52.920;6.238;2022-09-09T12:55:32;8.20;;;1.80;;
52322;SDS011;38263;52.920;6.238;2022-09-09T12:58:01;7.82;;;1.80;;
52322;SDS011;38263;52.920;6.238;2022-09-09T13:00:32;9.15;;;1.83;;
52322;SDS011;38263;52.920;6.238;2022-09-09T13:03:00;7.65;;;1.48;;
52322;SDS011;38263;52.920;6.238;2022-09-09T13:05:28;4.93;;;1.27;;
52322;SDS011;38263;52.920;6.238;2022-09-09T13:08:04;6.00;;;1.42;;
52322;SDS011;38263;52.920;6.238;2022-09-09T13:10:31;4.47;;;1.30;;
52322;SDS011;38263;52.920;6.238;2022-09-09T13:13:00;6.05;;;1.27;;
52322;SDS011;38263;52.920;6.238;2022-09-09T13:15:27;4.70;;;0.88;;
52322;SDS011;38263;52.920;6.238;2022-09-09T13:17:54;6.28;;;1.20;;
52322;SDS011;38263;52.920;6.238;2022-09-09T13:20:26;5.75;;;1.00;;
52322;SDS011;38263;52.920;6.238;2022-09-09T13:22:53;4.28;;;1.00;;
52322;SDS011;38263;52.920;6.238;2022-09-09T13:25:21;7.88;;;2.15;;
52322;SDS011;38263;52.920;6.238;2022-09-09T13:27:56;9.00;;;1.58;;
52322;SDS011;38263;52.920;6.238;2022-09-09T13:33:05;7.47;;;1.10;;
52322;SDS011;38263;52.920;6.238;2022-09-09T13:36:03;3.55;;;1.08;;
52322;SDS011;38263;52.920;6.238;2022-09-09T13:38:31;6.32;;;1.30;;
52322;SDS011;38263;52.920;6.238;2022-09-09T13:43:42;4.90;;;1.23;;
52322;SDS011;38263;52.920;6.238;2022-09-09T13:49:22;4.22;;;1.10;;
52322;SDS011;38263;52.920;6.238;2022-09-09T13:51:47;4.45;;;1.77;;
52322;SDS011;38263;52.920;6.238;2022-09-09T13:54:27;6.07;;;1.27;;
52322;SDS011;38263;52.920;6.238;2022-09-09T13:56:53;2.10;;;1.00;;
52322;SDS011;38263;52.920;6.238;2022-09-09T13:59:20;4.47;;;1.58;;
52322;SDS011;38263;52.920;6.238;2022-09-09T14:01:46;4.72;;;1.50;;
52322;SDS011;38263;52.920;6.238;2022-09-09T14:04:14;3.50;;;1.27;;
52322;SDS011;38263;52.920;6.238;2022-09-09T14:06:40;3.33;;;1.20;;
52322;SDS011;38263;52.920;6.238;2022-09-09T14:09:07;5.93;;;1.42;;
52322;SDS011;38263;52.920;6.238;2022-09-09T14:11:35;3.53;;;1.50;;
52322;SDS011;38263;52.920;6.238;2022-09-09T14:14:01;5.13;;;1.60;;
52322;SDS011;38263;52.920;6.238;2022-09-09T14:16:27;4.47;;;1.70;;
52322;SDS011;38263;52.920;6.238;2022-09-09T14:18:52;2.67;;;1.52;;
52322;SDS011;38263;52.920;6.238;2022-09-09T14:21:18;6.72;;;3.22;;
52322;SDS011;38263;52.920;6.238;2022-09-09T14:23:44;3.83;;;1.38;;
52322;SDS011;38263;52.920;6.238;2022-09-09T14:26:09;5.15;;;1.83;;
52322;SDS011;38263;52.920;6.238;2022-09-09T14:28:35;5.70;;;1.70;;
52322;SDS011;38263;52.920;6.238;2022-09-09T14:31:02;3.00;;;1.27;;
52322;SDS011;38263;52.920;6.238;2022-09-09T14:33:29;7.30;;;1.98;;
52322;SDS011;38263;52.920;6.238;2022-09-09T14:35:56;5.10;;;1.33;;
52322;SDS011;38263;52.920;6.238;2022-09-09T14:38:22;7.93;;;1.63;;
52322;SDS011;38263;52.920;6.238;2022-09-09T14:40:48;4.13;;;1.50;;
52322;SDS011;38263;52.920;6.238;2022-09-09T14:43:13;3.15;;;1.00;;
52322;SDS011;38263;52.920;6.238;2022-09-09T14:45:39;3.25;;;1.30;;
52322;SDS011;38263;52.920;6.238;2022-09-09T14:48:05;6.18;;;1.48;;
52322;SDS011;38263;52.920;6.238;2022-09-09T14:50:30;4.75;;;1.17;;
52322;SDS011;38263;52.920;6.238;2022-09-09T14:52:56;6.05;;;1.45;;
52322;SDS011;38263;52.920;6.238;2022-09-09T14:55:22;4.55;;;1.33;;
52322;SDS011;38263;52.920;6.238;2022-09-09T14:57:47;6.20;;;0.80;;
52322;SDS011;38263;52.920;6.238;2022-09-09T15:00:14;4.30;;;1.38;;
52322;SDS011;38263;52.920;6.238;2022-09-09T15:02:39;2.92;;;1.10;;
52322;SDS011;38263;52.920;6.238;2022-09-09T15:05:05;4.45;;;1.27;;
52322;SDS011;38263;52.920;6.238;2022-09-09T15:07:31;3.33;;;1.25;;
52322;SDS011;38263;52.920;6.238;2022-09-09T15:09:57;4.00;;;1.15;;
52322;SDS011;38263;52.920;6.238;2022-09-09T15:12:23;3.05;;;1.08;;
52322;SDS011;38263;52.920;6.238;2022-09-09T15:14:49;6.43;;;0.98;;
52322;SDS011;38263;52.920;6.238;2022-09-09T15:17:15;4.30;;;1.30;;
52322;SDS011;38263;52.920;6.238;2022-09-09T15:19:41;4.90;;;0.98;;
52322;SDS011;38263;52.920;6.238;2022-09-09T15:22:07;4.22;;;1.20;;
52322;SDS011;38263;52.920;6.238;2022-09-09T15:24:33;4.45;;;1.27;;
52322;SDS011;38263;52.920;6.238;2022-09-09T15:26:59;2.65;;;0.98;;
52322;SDS011;38263;52.920;6.238;2022-09-09T15:29:25;5.13;;;1.10;;
52322;SDS011;38263;52.920;6.238;2022-09-09T15:31:52;4.82;;;1.27;;
52322;SDS011;38263;52.920;6.238;2022-09-09T15:34:19;4.95;;;1.15;;
52322;SDS011;38263;52.920;6.238;2022-09-09T15:36:45;4.18;;;1.20;;
52322;SDS011;38263;52.920;6.238;2022-09-09T15:39:11;3.13;;;0.85;;
52322;SDS011;38263;52.920;6.238;2022-09-09T15:41:40;3.22;;;1.13;;
52322;SDS011;38263;52.920;6.238;2022-09-09T15:44:07;5.13;;;1.00;;
52322;SDS011;38263;52.920;6.238;2022-09-09T15:46:36;4.50;;;1.00;;
52322;SDS011;38263;52.920;6.238;2022-09-09T15:49:13;5.82;;;1.20;;
52322;SDS011;38263;52.920;6.238;2022-09-09T15:51:44;4.10;;;0.90;;
52322;SDS011;38263;52.920;6.238;2022-09-09T15:54:18;4.32;;;1.02;;
52322;SDS011;38263;52.920;6.238;2022-09-09T15:56:46;2.95;;;0.98;;
52322;SDS011;38263;52.920;6.238;2022-09-09T15:59:15;5.65;;;1.55;;
52322;SDS011;38263;52.920;6.238;2022-09-09T16:01:41;3.05;;;1.50;;
52322;SDS011;38263;52.920;6.238;2022-09-09T16:04:08;3.15;;;1.30;;
52322;SDS011;38263;52.920;6.238;2022-09-09T16:06:35;3.95;;;0.90;;
52322;SDS011;38263;52.920;6.238;2022-09-09T16:09:02;4.13;;;1.38;;
52322;SDS011;38263;52.920;6.238;2022-09-09T16:11:30;4.00;;;1.17;;
52322;SDS011;38263;52.920;6.238;2022-09-09T16:13:58;3.08;;;0.93;;
52322;SDS011;38263;52.920;6.238;2022-09-09T16:16:25;4.85;;;1.38;;
52322;SDS011;38263;52.920;6.238;2022-09-09T16:18:57;2.47;;;1.10;;
52322;SDS011;38263;52.920;6.238;2022-09-09T16:21:25;2.85;;;1.15;;
52322;SDS011;38263;52.920;6.238;2022-09-09T16:23:54;11.82;;;3.38;;
52322;SDS011;38263;52.920;6.238;2022-09-09T16:26:20;9.95;;;2.55;;
52322;SDS011;38263;52.920;6.238;2022-09-09T16:28:47;5.28;;;1.65;;
52322;SDS011;38263;52.920;6.238;2022-09-09T16:31:17;7.55;;;2.03;;
52322;SDS011;38263;52.920;6.238;2022-09-09T16:33:45;8.18;;;2.20;;
52322;SDS011;38263;52.920;6.238;2022-09-09T16:36:12;6.90;;;2.20;;
52322;SDS011;38263;52.920;6.238;2022-09-09T16:38:39;5.80;;;2.10;;
52322;SDS011;38263;52.920;6.238;2022-09-09T16:41:05;4.20;;;2.10;;
52322;SDS011;38263;52.920;6.238;2022-09-09T16:43:32;5.88;;;2.80;;
52322;SDS011;38263;52.920;6.238;2022-09-09T16:45:59;5.78;;;2.72;;
52322;SDS011;38263;52.920;6.238;2022-09-09T16:48:31;4.85;;;2.25;;
52322;SDS011;38263;52.920;6.238;2022-09-09T16:51:00;4.85;;;2.45;;
52322;SDS011;38263;52.920;6.238;2022-09-09T16:53:31;5.90;;;2.55;;
52322;SDS011;38263;52.920;6.238;2022-09-09T16:55:57;6.07;;;2.70;;
52322;SDS011;38263;52.920;6.238;2022-09-09T16:58:23;5.35;;;2.67;;
52322;SDS011;38263;52.920;6.238;2022-09-09T17:00:48;4.47;;;2.45;;
52322;SDS011;38263;52.920;6.238;2022-09-09T17:03:16;5.80;;;2.30;;
52322;SDS011;38263;52.920;6.238;2022-09-09T17:05:41;6.90;;;2.38;;
52322;SDS011;38263;52.920;6.238;2022-09-09T17:08:07;5.97;;;2.28;;